Time;durP1;ratioP1;P1;durP2;ratioP2;P2;SDS_P1;SDS_P2;PMS_P1;PMS_P2;Temp;Humidity;BMP_temperature;BMP_pressure;BME280_temperature;BME280_humidity;BME280_pressure;Samples;Min_cycle;Max_cycle;Signal;HPM_P1;HPM_P2
2024/03/06 00:00:42;;;;;;;0.00;0.00;;;;;;;2.27;100.00;100555.13;6226053;22;20090;-75
2024/03/06 00:03:08;;;;;;;0.00;0.00;;;;;;;2.36;100.00;100579.22;6225558;22;20389;-75
2024/03/06 00:05:34;;;;;;;0.00;0.00;;;;;;;2.22;100.00;100551.38;6254237;22;19999;-76
2024/03/06 00:08:01;;;;;;;0.00;0.00;;;;;;;2.33;100.00;100571.53;6253454;22;20225;-75
2024/03/06 00:10:30;;;;;;;0.00;0.00;;;;;;;2.32;100.00;100567.19;6280844;22;20034;-74
2024/03/06 00:12:58;;;;;;;0.00;0.00;;;;;;;2.25;100.00;100565.31;6201932;22;20049;-74
2024/03/06 00:15:24;;;;;;;0.00;0.00;;;;;;;2.23;100.00;100567.41;6252069;22;20635;-75
2024/03/06 00:17:49;;;;;;;0.00;0.00;;;;;;;2.12;100.00;100551.81;6250727;22;20014;-74
2024/03/06 00:20:15;;;;;;;0.10;0.10;;;;;;;2.04;100.00;100546.63;6202145;22;20481;-75
2024/03/06 00:22:43;;;;;;;0.00;0.00;;;;;;;2.05;100.00;100561.78;6225919;22;20008;-74
2024/03/06 00:25:08;;;;;;;0.00;0.00;;;;;;;2.20;100.00;100586.69;6227347;22;20012;-75
2024/03/06 00:27:34;;;;;;;0.10;0.10;;;;;;;2.13;100.00;100583.13;6277854;22;20011;-75
2024/03/06 00:29:59;;;;;;;0.00;0.00;;;;;;;2.19;100.00;100585.03;6234496;22;20010;-74
2024/03/06 00:32:24;;;;;;;0.00;0.00;;;;;;;2.13;100.00;100591.25;6210693;22;20068;-75
2024/03/06 00:34:52;;;;;;;0.00;0.00;;;;;;;2.15;100.00;100593.75;6227656;22;20027;-74
2024/03/06 00:37:20;;;;;;;0.00;0.00;;;;;;;2.09;100.00;100590.84;6204522;22;20008;-74
2024/03/06 00:39:47;;;;;;;0.00;0.00;;;;;;;2.15;100.00;100596.47;6223763;22;20000;-75
2024/03/06 00:42:13;;;;;;;0.00;0.00;;;;;;;2.03;100.00;100590.81;6227779;22;20133;-75
2024/03/06 00:44:39;;;;;;;0.00;0.00;;;;;;;2.04;100.00;100590.59;6248233;22;19995;-74
2024/03/06 00:47:04;;;;;;;0.00;0.00;;;;;;;2.09;100.00;100596.22;6229910;22;20445;-74
2024/03/06 00:49:30;;;;;;;0.00;0.00;;;;;;;2.08;100.00;100605.34;6227813;22;20469;-75
2024/03/06 00:51:55;;;;;;;0.10;0.10;;;;;;;2.01;100.00;100598.28;6226891;22;20035;-76
2024/03/06 00:54:20;;;;;;;0.10;0.10;;;;;;;2.00;100.00;100602.88;6228770;22;20012;-75
2024/03/06 00:56:46;;;;;;;0.00;0.00;;;;;;;1.99;100.00;100603.06;6202054;22;20003;-75
2024/03/06 00:59:11;;;;;;;0.00;0.00;;;;;;;1.83;100.00;100586.22;6254996;22;19995;-74
2024/03/06 01:01:37;;;;;;;0.00;0.00;;;;;;;1.69;100.00;100566.47;6226062;22;20096;-75
2024/03/06 01:04:02;;;;;;;0.00;0.00;;;;;;;1.71;100.00;100577.91;6228742;22;20007;-75
2024/03/06 01:06:28;;;;;;;0.00;0.00;;;;;;;1.74;100.00;100587.47;6201508;22;20083;-75
2024/03/06 01:08:54;;;;;;;0.00;0.00;;;;;;;1.81;100.00;100606.34;6227296;22;20057;-74
2024/03/06 01:11:20;;;;;;;0.00;0.00;;;;;;;1.78;100.00;100606.75;6254061;22;20024;-74
2024/03/06 01:13:45;;;;;;;0.10;0.10;;;;;;;1.73;100.00;100597.41;6226512;22;20041;-75
2024/03/06 01:16:10;;;;;;;0.10;0.10;;;;;;;1.76;100.00;100612.34;6226608;22;20035;-76
2024/03/06 01:18:36;;;;;;;0.00;0.00;;;;;;;1.73;100.00;100601.97;6253294;22;20084;-75
2024/03/06 01:21:03;;;;;;;0.10;0.10;;;;;;;1.70;100.00;100607.78;6279616;22;19995;-73
2024/03/06 01:23:29;;;;;;;0.00;0.00;;;;;;;1.57;100.00;100593.19;6250333;22;20457;-73
2024/03/06 01:25:54;;;;;;;0.00;0.00;;;;;;;1.74;100.00;100609.03;6225762;22;20011;-73
2024/03/06 01:28:20;;;;;;;0.00;0.00;;;;;;;1.75;100.00;100610.66;6252750;22;20007;-73
2024/03/06 01:30:45;;;;;;;0.10;0.10;;;;;;;1.72;100.00;100608.38;6200286;22;20012;-74
2024/03/06 01:33:11;;;;;;;0.03;0.03;;;;;;;1.67;100.00;100602.78;6251758;22;20077;-73
2024/03/06 01:35:36;;;;;;;0.10;0.10;;;;;;;1.76;100.00;100615.03;6227622;22;20030;-74
2024/03/06 01:38:02;;;;;;;0.00;0.00;;;;;;;1.70;100.00;100607.78;6198039;22;20014;-74
2024/03/06 01:40:29;;;;;;;0.10;0.10;;;;;;;1.61;100.00;100603.56;6202559;22;20007;-74
2024/03/06 01:43:19;;;;;;;0.10;0.10;;;;;;;1.27;100.00;100548.75;6201290;22;20019;-75
2024/03/06 01:45:48;;;;;;;0.00;0.00;;;;;;;1.59;100.00;100611.03;6230362;22;20090;-75
2024/03/06 01:48:16;;;;;;;0.00;0.00;;;;;;;1.37;100.00;100576.97;6251150;22;20015;-75
2024/03/06 01:50:44;;;;;;;0.00;0.00;;;;;;;1.50;100.00;100602.31;6252798;22;20082;-74
2024/03/06 01:53:10;;;;;;;0.00;0.00;;;;;;;1.27;100.00;100564.91;6227099;22;20012;-75
2024/03/06 01:55:47;;;;;;;;;;;;;;;;;;;;;
2024/03/06 01:58:17;;;;;;;0.10;0.10;;;;;;;1.39;100.00;100598.34;6271468;22;20055;-75
2024/03/06 02:00:42;;;;;;;0.00;0.00;;;;;;;1.48;100.00;100620.56;6254989;22;20008;-75
2024/03/06 02:03:21;;;;;;;0.10;0.10;;;;;;;1.39;100.00;100609.13;6252680;22;20035;-76
2024/03/06 02:05:51;;;;;;;0.10;0.10;;;;;;;1.35;100.00;100610.53;6229698;22;20003;-74
2024/03/06 02:08:17;;;;;;;0.00;0.00;;;;;;;1.39;100.00;100617.19;6278741;22;20014;-75
2024/03/06 02:10:46;;;;;;;0.10;0.10;;;;;;;1.30;100.00;100602.22;6226687;22;20015;-74
2024/03/06 02:13:13;;;;;;;0.00;0.00;;;;;;;1.27;100.00;100608.00;6280111;22;20011;-75
2024/03/06 02:15:38;;;;;;;0.10;0.10;;;;;;;1.13;100.00;100585.56;6252596;22;20081;-75
2024/03/06 02:18:16;;;;;;;0.10;0.10;;;;;;;1.34;100.00;100616.97;6254539;22;20052;-74
2024/03/06 02:20:41;;;;;;;0.00;0.00;;;;;;;1.11;100.00;100575.00;6254202;22;19996;-75
2024/03/06 02:23:07;;;;;;;0.00;0.00;;;;;;;1.32;100.00;100594.78;6252944;22;20094;-73
2024/03/06 02:25:33;;;;;;;0.00;0.00;;;;;;;1.35;100.00;100613.25;6227132;22;20008;-75
2024/03/06 02:28:00;;;;;;;0.00;0.00;;;;;;;1.21;100.00;100591.63;6250293;22;20053;-74
2024/03/06 02:30:30;;;;;;;0.10;0.10;;;;;;;1.23;100.00;100586.03;6227087;22;20008;-75
2024/03/06 02:32:56;;;;;;;0.10;0.10;;;;;;;1.33;100.00;100596.41;6225135;22;20010;-75
2024/03/06 02:35:26;;;;;;;0.00;0.00;;;;;;;1.34;100.00;100600.78;6252966;22;20011;-73
2024/03/06 02:37:52;;;;;;;0.10;0.10;;;;;;;1.45;100.00;100602.91;6250293;22;20004;-73
2024/03/06 02:40:25;;;;;;;0.00;0.00;;;;;;;1.46;100.00;100601.91;6226523;22;20081;-73
2024/03/06 02:42:53;;;;;;;0.00;0.00;;;;;;;1.42;100.00;100597.06;6249157;22;20000;-74
2024/03/06 02:45:19;;;;;;;0.10;0.10;;;;;;;1.28;100.00;100590.81;6252688;22;20086;-74
2024/03/06 02:47:45;;;;;;;0.00;0.00;;;;;;;1.18;100.00;100597.41;6226621;22;20061;-75
2024/03/06 02:50:10;;;;;;;0.00;0.00;;;;;;;1.06;100.00;100582.00;6226608;22;20386;-75
2024/03/06 02:52:38;;;;;;;0.10;0.10;;;;;;;1.10;100.00;100594.06;6227674;22;20007;-75
2024/03/06 02:55:04;;;;;;;0.10;0.10;;;;;;;1.01;100.00;100588.81;6251330;22;20011;-75
2024/03/06 02:57:31;;;;;;;0.10;0.10;;;;;;;1.06;100.00;100596.31;6254820;22;20031;-73
2024/03/06 02:59:57;;;;;;;0.10;0.10;;;;;;;1.24;100.00;100603.84;6226821;22;20015;-75
2024/03/06 03:02:23;;;;;;;0.10;0.10;;;;;;;1.27;100.00;100597.22;6253883;22;20318;-74
2024/03/06 03:04:50;;;;;;;0.00;0.00;;;;;;;1.31;100.00;100590.41;6226242;22;20054;-74
2024/03/06 03:07:15;;;;;;;0.10;0.10;;;;;;;1.29;100.00;100581.72;6251575;22;20085;-73
2024/03/06 03:09:41;;;;;;;0.00;0.00;;;;;;;1.29;100.00;100592.50;6227473;22;20427;-75
2024/03/06 03:12:06;;;;;;;0.10;0.10;;;;;;;1.32;100.00;100584.00;6250004;22;20027;-75
2024/03/06 03:14:32;;;;;;;0.00;0.00;;;;;;;1.32;100.00;100584.00;6202134;22;20030;-73
2024/03/06 03:17:02;;;;;;;0.00;0.00;;;;;;;1.31;100.00;100588.53;6227239;22;20004;-74
2024/03/06 03:19:27;;;;;;;0.00;0.00;;;;;;;1.24;100.00;100578.78;6225521;22;20003;-75
2024/03/06 03:21:53;;;;;;;0.00;0.00;;;;;;;1.22;100.00;100579.81;6227947;22;20031;-74
2024/03/06 03:24:20;;;;;;;0.10;0.10;;;;;;;1.15;100.00;100573.53;6200499;22;19992;-74
2024/03/06 03:26:45;;;;;;;0.00;0.00;;;;;;;1.13;100.00;100586.41;6200760;22;20094;-75
2024/03/06 03:29:11;;;;;;;0.00;0.00;;;;;;;1.09;100.00;100589.69;6227966;22;20741;-74
2024/03/06 03:31:38;;;;;;;0.10;0.10;;;;;;;1.01;100.00;100588.00;6248774;22;20008;-74
2024/03/06 03:34:05;;;;;;;0.00;0.00;;;;;;;0.94;100.00;100593.34;6254630;22;20007;-73
2024/03/06 03:36:30;;;;;;;0.00;0.00;;;;;;;0.78;100.00;100593.66;6258379;22;20073;-74
2024/03/06 03:38:56;;;;;;;0.00;0.00;;;;;;;0.62;100.00;100586.72;6233394;22;20012;-75
2024/03/06 03:41:21;;;;;;;0.00;0.00;;;;;;;0.47;100.00;100587.66;6202678;22;20015;-73
2024/03/06 03:43:47;;;;;;;0.00;0.00;;;;;;;0.39;100.00;100597.72;6227521;22;20367;-74
2024/03/06 03:46:13;;;;;;;0.00;0.00;;;;;;;0.35;100.00;100599.97;6201382;22;20071;-74
2024/03/06 03:48:39;;;;;;;0.00;0.00;;;;;;;0.30;100.00;100602.41;6246841;22;20007;-73
2024/03/06 03:51:06;;;;;;;0.10;0.10;;;;;;;0.21;100.00;100598.22;6250887;22;20007;-73
2024/03/06 03:53:33;;;;;;;0.00;0.00;;;;;;;0.25;100.00;100603.00;6247835;22;20008;-74
2024/03/06 03:56:00;;;;;;;0.10;0.10;;;;;;;0.12;100.00;100598.31;6225957;22;20751;-75
2024/03/06 03:58:25;;;;;;;0.00;0.00;;;;;;;0.13;100.00;100601.84;6248935;22;20011;-75
2024/03/06 04:00:55;;;;;;;0.10;0.10;;;;;;;0.13;100.00;100602.69;6252125;22;20411;-74
2024/03/06 04:03:20;;;;;;;0.10;0.10;;;;;;;0.15;100.00;100611.38;6201428;22;20085;-75
2024/03/06 04:05:49;;;;;;;0.10;0.10;;;;;;;0.19;100.00;100613.69;6223710;22;20011;-75
2024/03/06 04:08:15;;;;;;;0.10;0.10;;;;;;;0.16;100.00;100609.53;6228246;22;20008;-74
2024/03/06 04:10:44;;;;;;;0.10;0.10;;;;;;;0.17;100.00;100616.56;6249305;22;20478;-75
2024/03/06 04:13:11;;;;;;;0.10;0.10;;;;;;;0.10;100.00;100600.41;6252090;22;20065;-75
2024/03/06 04:15:36;;;;;;;0.00;0.00;;;;;;;0.05;100.00;100593.91;6201866;22;20023;-74
2024/03/06 04:18:02;;;;;;;0.10;0.10;;;;;;;-0.03;100.00;100592.16;6199356;22;20011;-75
2024/03/06 04:20:27;;;;;;;0.10;0.10;;;;;;;0.01;100.00;100604.22;6228444;22;20004;-73
2024/03/06 04:22:53;;;;;;;0.10;0.10;;;;;;;0.05;100.00;100613.56;6223871;22;20003;-76
2024/03/06 04:25:18;;;;;;;0.00;0.00;;;;;;;0.08;100.00;100604.28;6229974;22;20011;-74
2024/03/06 04:27:44;;;;;;;0.10;0.10;;;;;;;0.15;100.00;100610.56;6251984;22;20004;-74
2024/03/06 04:30:10;;;;;;;0.10;0.10;;;;;;;0.25;100.00;100621.81;6229335;22;20351;-75
2024/03/06 04:32:36;;;;;;;0.10;0.10;;;;;;;0.24;100.00;100617.47;6203075;22;20394;-75
2024/03/06 04:35:03;;;;;;;0.10;0.10;;;;;;;0.25;100.00;100634.44;6252467;22;19988;-73
2024/03/06 04:37:29;;;;;;;0.10;0.10;;;;;;;0.24;100.00;100636.28;6227851;22;20008;-74
2024/03/06 04:39:54;;;;;;;0.10;0.10;;;;;;;0.08;100.00;100623.13;6225041;22;20016;-74
2024/03/06 04:42:20;;;;;;;0.10;0.10;;;;;;;0.12;100.00;100638.66;6252952;22;20015;-74
2024/03/06 04:44:46;;;;;;;0.10;0.10;;;;;;;0.10;100.00;100635.34;6197553;22;20072;-73
2024/03/06 04:47:16;;;;;;;0.10;0.10;;;;;;;0.09;100.00;100633.69;6254218;22;20357;-74
2024/03/06 04:49:42;;;;;;;0.00;0.00;;;;;;;0.02;100.00;100632.78;6226339;22;20057;-74
2024/03/06 04:52:09;;;;;;;0.10;0.10;;;;;;;0.05;100.00;100632.38;6252303;22;20026;-75
2024/03/06 04:54:34;;;;;;;0.10;0.10;;;;;;;0.10;100.00;100629.13;6226945;22;20015;-76
2024/03/06 04:57:00;;;;;;;0.00;0.00;;;;;;;0.07;100.00;100635.72;6226733;22;20015;-74
2024/03/06 04:59:26;;;;;;;0.10;0.10;;;;;;;0.01;100.00;100625.72;6203206;22;20002;-75
2024/03/06 05:01:52;;;;;;;0.10;0.10;;;;;;;0.07;100.00;100640.25;6198419;22;20007;-75
2024/03/06 05:04:17;;;;;;;0.10;0.10;;;;;;;0.04;100.00;100644.16;6228255;22;20697;-74
2024/03/06 05:06:43;;;;;;;0.10;0.10;;;;;;;0.01;100.00;100641.03;6253193;22;20663;-75
2024/03/06 05:09:11;;;;;;;0.10;0.10;;;;;;;0.01;100.00;100644.53;6222407;22;20015;-75
2024/03/06 05:11:38;;;;;;;0.10;0.10;;;;;;;-0.04;100.00;100649.69;6229511;22;20015;-75
2024/03/06 05:14:03;;;;;;;0.10;0.10;;;;;;;-0.26;100.00;100633.53;6251336;22;20003;-76
2024/03/06 05:16:29;;;;;;;0.10;0.10;;;;;;;-0.24;100.00;100644.06;6227958;22;20015;-75
2024/03/06 05:18:55;;;;;;;0.10;0.10;;;;;;;-0.32;100.00;100645.03;6226978;22;20035;-74
2024/03/06 05:21:22;;;;;;;0.10;0.10;;;;;;;-0.41;100.00;100644.31;6252156;22;20012;-74
2024/03/06 05:23:48;;;;;;;0.10;0.10;;;;;;;-0.45;100.00;100636.78;6229313;22;20012;-75
2024/03/06 05:26:16;;;;;;;0.10;0.10;;;;;;;-0.54;100.00;100636.91;6279244;22;20277;-76
2024/03/06 05:28:41;;;;;;;0.10;0.10;;;;;;;-0.47;100.00;100645.03;6255278;22;20430;-75
2024/03/06 05:31:19;;;;;;;0.00;0.00;;;;;;;-0.57;100.00;100639.97;6252007;22;20061;-75
2024/03/06 05:33:50;;;;;;;0.00;0.00;;;;;;;-0.63;100.00;100629.97;6281599;22;20007;-74
2024/03/06 05:36:17;;;;;;;0.08;0.08;;;;;;;-0.57;100.00;100650.72;6278397;22;20419;-74
2024/03/06 05:38:45;;;;;;;0.00;0.00;;;;;;;-0.68;100.00;100632.38;6253551;22;20004;-74
2024/03/06 05:41:10;;;;;;;0.00;0.00;;;;;;;-0.50;100.00;100666.09;6251764;22;20081;-74
2024/03/06 05:43:37;;;;;;;0.10;0.10;;;;;;;-0.57;100.00;100656.09;6227041;22;20435;-73
2024/03/06 05:46:02;;;;;;;0.10;0.10;;;;;;;-0.54;100.00;100669.16;6277305;22;20078;-75
2024/03/06 05:48:31;;;;;;;0.10;0.10;;;;;;;-0.47;100.00;100669.22;6280479;22;19999;-74
2024/03/06 05:51:01;;;;;;;0.00;0.00;;;;;;;-0.61;100.00;100649.44;6229511;22;20408;-76
2024/03/06 05:53:26;;;;;;;0.10;0.10;;;;;;;-0.45;100.00;100679.78;6252104;22;20010;-77
2024/03/06 05:55:52;;;;;;;0.10;0.10;;;;;;;-0.48;100.00;100680.16;6254927;22;20086;-75
2024/03/06 05:58:18;;;;;;;0.10;0.10;;;;;;;-0.90;100.00;100623.44;6253569;22;20091;-76
2024/03/06 06:00:45;;;;;;;0.10;0.10;;;;;;;-0.68;100.00;100659.25;6252184;22;20420;-75
2024/03/06 06:03:11;;;;;;;0.10;0.10;;;;;;;-0.96;100.00;100624.19;6230701;22;20093;-75
2024/03/06 06:05:40;;;;;;;0.10;0.10;;;;;;;-0.92;100.00;100638.88;6249968;22;20315;-75
2024/03/06 06:08:08;;;;;;;0.00;0.00;;;;;;;-0.70;100.00;100682.78;6253260;22;20067;-76
2024/03/06 06:10:34;;;;;;;0.10;0.10;;;;;;;-0.91;100.00;100660.16;6277454;22;19999;-75
2024/03/06 06:13:04;;;;;;;0.10;0.10;;;;;;;-0.93;100.00;100656.84;6253091;22;20187;-75
2024/03/06 06:15:30;;;;;;;0.10;0.10;;;;;;;-0.78;100.00;100688.25;6226847;22;20014;-76
2024/03/06 06:17:56;;;;;;;0.10;0.10;;;;;;;-0.84;100.00;100688.97;6227181;22;20015;-76
2024/03/06 06:20:21;;;;;;;0.10;0.10;;;;;;;-1.00;100.00;100674.69;6252857;22;20092;-75
2024/03/06 06:22:47;;;;;;;0.10;0.10;;;;;;;-0.92;100.00;100685.38;6251708;22;20090;-73
2024/03/06 06:25:12;;;;;;;0.08;0.08;;;;;;;-0.94;100.00;100690.06;6277758;22;20030;-74
2024/03/06 06:27:38;;;;;;;0.10;0.10;;;;;;;-0.99;100.00;100679.06;6251437;22;20085;-74
2024/03/06 06:30:05;;;;;;;0.03;0.03;;;;;;;-0.93;100.00;100689.06;6227117;22;20007;-73
2024/03/06 06:32:30;;;;;;;0.10;0.10;;;;;;;-0.98;100.00;100686.13;6226651;22;20068;-74
2024/03/06 06:34:58;;;;;;;0.10;0.10;;;;;;;-0.92;100.00;100690.75;6225841;22;20011;-74
2024/03/06 06:37:24;;;;;;;0.10;0.10;;;;;;;-0.88;100.00;100693.88;6279086;22;20006;-74
2024/03/06 06:39:49;;;;;;;0.10;0.10;;;;;;;-1.08;100.00;100664.03;6225767;22;20616;-73
2024/03/06 06:42:15;;;;;;;0.10;0.10;;;;;;;-0.98;100.00;100680.75;6229092;22;20019;-74
2024/03/06 06:44:41;;;;;;;0.10;0.10;;;;;;;-0.84;100.00;100699.72;6251082;22;20024;-73
2024/03/06 06:47:07;;;;;;;0.00;0.00;;;;;;;-0.89;100.00;100701.09;6264738;22;20011;-75
2024/03/06 06:49:33;;;;;;;0.08;0.08;;;;;;;-0.84;100.00;100707.78;6203812;22;20080;-74
2024/03/06 06:51:59;;;;;;;0.10;0.10;;;;;;;-0.88;100.00;100694.72;6254510;22;20055;-74
2024/03/06 06:54:24;;;;;;;0.10;0.10;;;;;;;-0.77;100.00;100714.91;6229188;22;20007;-75
2024/03/06 06:56:50;;;;;;;0.10;0.10;;;;;;;-0.82;100.00;100695.00;6223868;22;20008;-75
2024/03/06 06:59:15;;;;;;;0.10;0.10;;;;;;;-0.72;100.00;100714.34;6226115;22;20411;-75
2024/03/06 07:01:41;;;;;;;0.10;0.10;;;;;;;-0.71;100.00;100697.22;6223164;22;20012;-73
2024/03/06 07:04:07;;;;;;;0.00;0.00;;;;;;;-0.71;100.00;100698.06;6225706;22;20015;-73
2024/03/06 07:06:32;;;;;;;0.10;0.10;;;;;;;-0.59;100.00;100701.09;6226095;22;20011;-73
2024/03/06 07:08:58;;;;;;;0.10;0.10;;;;;;;-0.62;100.00;100695.28;6248777;22;20012;-76
2024/03/06 07:11:24;;;;;;;0.10;0.10;;;;;;;-0.51;100.00;100696.66;6245939;22;20423;-73
2024/03/06 07:13:49;;;;;;;0.10;0.10;;;;;;;-0.46;100.00;100699.63;6220937;23;20019;-73
2024/03/06 07:16:14;;;;;;;0.10;0.10;;;;;;;-0.38;100.00;100711.09;6219956;23;20026;-75
2024/03/06 07:18:40;;;;;;;0.10;0.10;;;;;;;-0.30;100.00;100720.91;6222349;23;20008;-74
2024/03/06 07:21:05;;;;;;;0.00;0.00;;;;;;;-0.19;100.00;100712.38;6216974;23;20008;-75
2024/03/06 07:23:31;;;;;;;0.10;0.10;;;;;;;-0.06;100.00;100718.94;6245540;23;20004;-75
2024/03/06 07:25:57;;;;;;;0.10;0.10;;;;;;;-0.02;100.00;100712.97;6219632;23;20008;-75
2024/03/06 07:28:25;;;;;;;0.10;0.10;;;;;;;0.02;100.00;100702.69;6197984;23;20008;-74
2024/03/06 07:30:53;;;;;;;0.10;0.10;;;;;;;0.19;100.00;100713.19;6222191;23;20008;-74
2024/03/06 07:33:19;;;;;;;0.10;0.10;;;;;;;0.06;100.00;100693.22;6224354;23;20015;-73
2024/03/06 07:35:45;;;;;;;0.00;0.00;;;;;;;0.09;100.00;100700.91;6223212;23;20003;-74
2024/03/06 07:38:10;;;;;;;0.10;0.10;;;;;;;-0.10;100.00;100671.94;6219969;23;20046;-75
2024/03/06 07:40:36;;;;;;;0.10;0.10;;;;;;;0.14;100.00;100709.22;6249348;22;19984;-74
2024/03/06 07:43:01;;;;;;;0.00;0.00;;;;;;;0.39;100.00;100722.31;6245004;23;20012;-75
2024/03/06 07:45:27;;;;;;;0.10;0.10;;;;;;;0.33;100.00;100688.09;6220712;23;20639;-73
2024/03/06 07:47:52;;;;;;;0.10;0.10;;;;;;;0.60;100.00;100715.25;6244243;23;20004;-74
2024/03/06 07:50:18;;;;;;;0.10;0.10;;;;;;;0.97;100.00;100721.38;6218154;23;20008;-73
2024/03/06 07:52:54;;;;;;;0.10;0.10;;;;;;;1.71;100.00;100736.97;6170830;23;20023;-73
2024/03/06 07:55:21;;;;;;;0.10;0.10;;;;;;;2.76;100.00;100735.81;6193708;23;20036;-73
2024/03/06 07:57:47;;;;;;;0.10;0.10;;;;;;;4.33;100.00;100738.56;6221120;23;20095;-74
2024/03/06 08:00:19;;;;;;;0.00;0.00;;;;;;;5.92;100.00;100747.41;6242897;23;20411;-74
2024/03/06 08:02:50;;;;;;;0.10;0.10;;;;;;;6.80;94.17;100740.59;6222739;23;20019;-73
2024/03/06 08:05:16;;;;;;;0.03;0.03;;;;;;;7.39;88.31;100747.97;6242838;23;20004;-73
2024/03/06 08:07:42;;;;;;;0.10;0.10;;;;;;;7.22;86.73;100738.88;6245033;23;20007;-74
2024/03/06 08:10:14;;;;;;;0.00;0.00;;;;;;;7.02;86.69;100739.19;6219557;23;20004;-74
2024/03/06 08:12:44;;;;;;;0.00;0.00;;;;;;;6.94;88.47;100748.53;6219101;23;20023;-73
2024/03/06 08:15:13;;;;;;;0.00;0.00;;;;;;;6.90;88.52;100759.03;6195869;23;20003;-74
2024/03/06 08:17:41;;;;;;;0.10;0.10;;;;;;;6.38;88.16;100751.44;6246826;22;20019;-74
2024/03/06 08:20:08;;;;;;;0.10;0.10;;;;;;;5.74;89.96;100757.22;6249017;22;20006;-74
2024/03/06 08:22:43;;;;;;;0.10;0.10;;;;;;;5.17;94.78;100756.50;6244406;23;20015;-75
2024/03/06 08:25:10;;;;;;;0.10;0.10;;;;;;;4.75;97.55;100745.41;6249485;22;20008;-75
2024/03/06 08:27:39;;;;;;;0.10;0.10;;;;;;;4.78;100.00;100762.03;6220600;23;20066;-75
2024/03/06 08:30:09;;;;;;;0.00;0.00;;;;;;;4.89;100.00;100757.78;6244865;23;20000;-74
2024/03/06 08:32:37;;;;;;;0.10;0.10;;;;;;;5.41;100.00;100769.22;6220360;23;20008;-75
2024/03/06 08:35:05;;;;;;;0.00;0.00;;;;;;;6.22;100.00;100735.78;6248850;22;20000;-75
2024/03/06 08:37:32;;;;;;;0.00;0.00;;;;;;;7.86;99.68;100766.97;6222067;23;20046;-73
2024/03/06 08:40:00;;;;;;;0.00;0.00;;;;;;;9.45;89.95;100743.66;6219605;23;20058;-74
2024/03/06 08:42:27;;;;;;;0.00;0.00;;;;;;;10.92;81.17;100761.25;6246761;23;19999;-74
2024/03/06 08:44:53;;;;;;;0.00;0.00;;;;;;;11.69;75.72;100761.81;6244360;23;20008;-74
2024/03/06 08:47:18;;;;;;;0.00;0.00;;;;;;;12.43;72.07;100767.38;6222646;23;20031;-74
2024/03/06 08:49:44;;;;;;;0.10;0.10;;;;;;;12.94;68.81;100761.13;6220351;23;20008;-74
2024/03/06 08:52:10;;;;;;;0.00;0.00;;;;;;;13.26;67.02;100762.78;6246599;22;20001;-74
2024/03/06 08:54:36;;;;;;;0.00;0.00;;;;;;;14.10;65.18;100793.38;6243699;23;20008;-74
2024/03/06 08:57:02;;;;;;;0.00;0.00;;;;;;;15.46;61.62;100784.84;6247088;23;19992;-75
2024/03/06 08:59:38;;;;;;;0.00;0.00;;;;;;;16.25;58.27;100792.00;6223127;23;20012;-73
2024/03/06 09:02:15;;;;;;;0.00;0.00;;;;;;;17.27;55.67;100789.72;6195059;23;20012;-74
2024/03/06 09:04:41;;;;;;;0.00;0.00;;;;;;;18.81;52.44;100796.91;6244484;23;20057;-74
2024/03/06 09:07:07;;;;;;;0.00;0.00;;;;;;;19.94;49.47;100796.03;6244664;23;20019;-74
2024/03/06 09:09:33;;;;;;;0.00;0.00;;;;;;;20.89;47.61;100796.59;6248381;23;20008;-75
2024/03/06 09:12:14;;;;;;;0.00;0.00;;;;;;;21.71;45.82;100799.44;6232884;22;20020;-74
2024/03/06 09:14:41;;;;;;;0.00;0.00;;;;;;;22.84;44.29;100800.78;6254278;22;20626;-74
2024/03/06 09:17:10;;;;;;;0.00;0.00;;;;;;;23.65;42.58;100805.28;6226658;22;20004;-74
2024/03/06 09:19:36;;;;;;;0.00;0.00;;;;;;;24.70;41.25;100789.94;6251409;22;20003;-74
2024/03/06 09:22:02;;;;;;;0.00;0.00;;;;;;;25.66;39.45;100798.66;6252779;22;20004;-74
2024/03/06 09:24:28;;;;;;;0.00;0.00;;;;;;;26.04;38.17;100802.81;6200279;22;20008;-72
2024/03/06 09:26:54;;;;;;;0.00;0.00;;;;;;;25.52;38.68;100801.88;6226882;22;20014;-73
2024/03/06 09:29:20;;;;;;;0.00;0.00;;;;;;;24.52;40.48;100809.75;6250309;22;20003;-73
2024/03/06 09:31:46;;;;;;;0.00;0.00;;;;;;;24.13;41.52;100803.72;6251318;22;20029;-74
2024/03/06 09:34:12;;;;;;;0.00;0.00;;;;;;;24.80;41.10;100802.63;6277235;22;20082;-73
2024/03/06 09:36:39;;;;;;;0.00;0.00;;;;;;;25.67;39.32;100797.44;6279414;22;20008;-74
2024/03/06 09:39:04;;;;;;;0.00;0.00;;;;;;;25.65;38.68;100799.81;6226293;22;20308;-74
2024/03/06 09:41:30;;;;;;;0.00;0.00;;;;;;;25.71;38.87;100806.75;6251070;22;20010;-74
2024/03/06 09:43:56;;;;;;;0.00;0.00;;;;;;;25.74;37.92;100806.03;6254025;22;20087;-74
2024/03/06 09:46:22;;;;;;;0.00;0.00;;;;;;;25.07;38.38;100803.78;6258181;22;20003;-74
2024/03/06 09:48:51;;;;;;;0.00;0.00;;;;;;;24.43;38.60;100811.88;6259619;22;20342;-75
2024/03/06 09:51:17;;;;;;;0.00;0.00;;;;;;;24.92;37.80;100810.97;6253679;22;20024;-74
2024/03/06 09:53:47;;;;;;;0.00;0.00;;;;;;;26.36;35.95;100785.97;6279999;22;20018;-73
2024/03/06 09:56:13;;;;;;;0.00;0.00;;;;;;;28.28;32.85;100820.19;6228684;22;20019;-74
2024/03/06 09:58:39;;;;;;;0.00;0.00;;;;;;;29.97;31.50;100815.84;6227255;22;20018;-74
2024/03/06 10:01:07;;;;;;;0.00;0.00;;;;;;;30.64;30.61;100822.38;6254163;22;20099;-73
2024/03/06 10:03:33;;;;;;;0.00;0.00;;;;;;;29.65;31.46;100810.69;6199034;22;20334;-74
2024/03/06 10:05:59;;;;;;;0.00;0.00;;;;;;;28.52;32.59;100823.78;6226140;22;20431;-73
2024/03/06 10:08:26;;;;;;;0.00;0.00;;;;;;;26.72;33.66;100824.06;6225485;22;20094;-73
2024/03/06 10:10:52;;;;;;;0.00;0.00;;;;;;;25.45;34.69;100816.47;6224460;22;20069;-74
2024/03/06 10:13:20;;;;;;;0.00;0.00;;;;;;;24.00;36.27;100822.44;6251613;22;20102;-73
2024/03/06 10:16:00;;;;;;;0.00;0.00;;;;;;;24.11;36.27;100822.81;6275241;22;20111;-74
2024/03/06 10:18:30;;;;;;;0.00;0.00;;;;;;;25.64;34.66;100806.56;6278370;22;20000;-74
2024/03/06 10:20:56;;;;;;;0.00;0.00;;;;;;;26.42;33.76;100829.34;6249051;22;20110;-75
2024/03/06 10:23:22;;;;;;;0.00;0.00;;;;;;;27.99;32.36;100830.16;6277967;22;20368;-75
2024/03/06 10:25:54;;;;;;;0.00;0.00;;;;;;;29.32;30.30;100823.66;6276344;22;20008;-74
2024/03/06 10:28:22;;;;;;;0.00;0.00;;;;;;;28.57;29.90;100820.63;6249463;22;20008;-74
2024/03/06 10:30:49;;;;;;;0.00;0.00;;;;;;;27.93;30.79;100831.63;6223965;22;20153;-74
2024/03/06 10:33:18;;;;;;;0.00;0.00;;;;;;;27.13;30.93;100830.13;6199794;22;20004;-74
2024/03/06 10:35:45;;;;;;;0.00;0.00;;;;;;;25.86;32.31;100825.56;6250736;22;20625;-73
2024/03/06 10:38:11;;;;;;;0.00;0.00;;;;;;;24.84;33.31;100826.72;6246152;22;20077;-74
2024/03/06 10:40:38;;;;;;;0.00;0.00;;;;;;;25.08;33.96;100830.59;6252909;22;20015;-76
2024/03/06 10:43:06;;;;;;;0.00;0.00;;;;;;;26.98;32.10;100836.63;6250193;22;20419;-74
2024/03/06 10:45:46;;;;;;;0.00;0.00;;;;;;;28.08;29.47;100839.16;6254390;22;20006;-75
2024/03/06 10:48:14;;;;;;;0.00;0.00;;;;;;;29.07;28.77;100841.03;6249633;22;20077;-72
2024/03/06 10:50:43;;;;;;;0.00;0.00;;;;;;;29.89;27.43;100831.06;6280058;22;20003;-75
2024/03/06 10:53:12;;;;;;;0.00;0.00;;;;;;;31.31;26.27;100828.75;6252121;22;20011;-75
2024/03/06 10:55:38;;;;;;;0.00;0.00;;;;;;;33.37;24.58;100843.53;6227587;22;20430;-74
2024/03/06 10:58:11;;;;;;;0.00;0.00;;;;;;;35.10;23.68;100839.16;6250725;22;20090;-75
2024/03/06 11:00:40;;;;;;;0.00;0.00;;;;;;;37.27;22.60;100834.25;6224643;22;20457;-76
2024/03/06 11:03:13;;;;;;;0.00;0.00;;;;;;;39.57;21.29;100823.59;6252119;22;20053;-75
2024/03/06 11:05:40;;;;;;;0.00;0.00;;;;;;;41.56;19.57;100826.66;6249407;22;20008;-75
2024/03/06 11:08:10;;;;;;;0.00;0.00;;;;;;;42.54;18.79;100821.25;6254362;22;20004;-75
2024/03/06 11:10:38;;;;;;;0.00;0.00;;;;;;;43.63;18.30;100810.41;6249643;22;20423;-75
2024/03/06 11:13:25;;;;;;;0.00;0.00;;;;;;;44.32;16.87;100825.00;6280513;22;20050;-76
2024/03/06 11:15:52;;;;;;;0.00;0.00;;;;;;;44.26;15.98;100811.28;6249609;22;20053;-75
2024/03/06 11:18:30;;;;;;;0.00;0.00;;;;;;;44.67;16.18;100821.50;6253181;22;20506;-75
2024/03/06 11:21:01;;;;;;;0.00;0.00;;;;;;;45.55;15.93;100816.97;6249647;22;20027;-74
2024/03/06 11:23:27;;;;;;;0.00;0.00;;;;;;;46.21;15.16;100819.72;6253023;22;20381;-75